sensor_id;sensor_type;location;lat;lon;timestamp;P1;durP1;ratioP1;P2;durP2;ratioP2
77117;SDS011;66072;50.238;19.228;2023-02-01T00:00:43;10.70;;;6.80;;
77117;SDS011;66072;50.238;19.228;2023-02-01T00:03:25;12.60;;;7.50;;
77117;SDS011;66072;50.238;19.228;2023-02-01T00:05:58;12.50;;;8.00;;
77117;SDS011;66072;50.238;19.228;2023-02-01T00:08:28;10.50;;;5.10;;
77117;SDS011;66072;50.238;19.228;2023-02-01T00:11:03;13.10;;;8.00;;
77117;SDS011;66072;50.238;19.228;2023-02-01T00:13:33;11.20;;;6.80;;
77117;SDS011;66072;50.238;19.228;2023-02-01T00:16:05;13.10;;;7.40;;
77117;SDS011;66072;50.238;19.228;2023-02-01T00:19:00;10.70;;;6.00;;
77117;SDS011;66072;50.238;19.228;2023-02-01T00:21:37;10.70;;;6.40;;
77117;SDS011;66072;50.238;19.228;2023-02-01T00:24:05;9.20;;;6.00;;
77117;SDS011;66072;50.238;19.228;2023-02-01T00:26:35;13.30;;;7.70;;
77117;SDS011;66072;50.238;19.228;2023-02-01T00:29:05;12.50;;;6.90;;
77117;SDS011;66072;50.238;19.228;2023-02-01T00:31:39;12.60;;;7.30;;
77117;SDS011;66072;50.238;19.228;2023-02-01T00:34:07;13.30;;;7.10;;
77117;SDS011;66072;50.238;19.228;2023-02-01T00:36:37;12.50;;;7.00;;
77117;SDS011;66072;50.238;19.228;2023-02-01T00:39:05;11.30;;;6.80;;
77117;SDS011;66072;50.238;19.228;2023-02-01T00:41:33;13.20;;;7.30;;
77117;SDS011;66072;50.238;19.228;2023-02-01T00:44:00;7.40;;;4.90;;
77117;SDS011;66072;50.238;19.228;2023-02-01T00:46:29;11.00;;;7.10;;
77117;SDS011;66072;50.238;19.228;2023-02-01T00:48:57;9.70;;;5.50;;
77117;SDS011;66072;50.238;19.228;2023-02-01T00:51:26;11.10;;;5.90;;
77117;SDS011;66072;50.238;19.228;2023-02-01T00:53:55;8.60;;;4.60;;
77117;SDS011;66072;50.238;19.228;2023-02-01T00:56:23;12.10;;;6.70;;
77117;SDS011;66072;50.238;19.228;2023-02-01T00:58:51;13.80;;;6.80;;
77117;SDS011;66072;50.238;19.228;2023-02-01T01:01:20;12.90;;;7.00;;
77117;SDS011;66072;50.238;19.228;2023-02-01T01:03:53;11.40;;;6.50;;
77117;SDS011;66072;50.238;19.228;2023-02-01T01:06:24;7.20;;;4.70;;
77117;SDS011;66072;50.238;19.228;2023-02-01T01:08:54;6.50;;;3.70;;
77117;SDS011;66072;50.238;19.228;2023-02-01T01:11:25;4.90;;;2.60;;
77117;SDS011;66072;50.238;19.228;2023-02-01T01:13:56;6.90;;;4.30;;
77117;SDS011;66072;50.238;19.228;2023-02-01T01:16:25;6.60;;;4.10;;
77117;SDS011;66072;50.238;19.228;2023-02-01T01:18:55;8.30;;;4.90;;
77117;SDS011;66072;50.238;19.228;2023-02-01T01:21:24;10.30;;;6.10;;
77117;SDS011;66072;50.238;19.228;2023-02-01T01:23:53;7.50;;;4.40;;
77117;SDS011;66072;50.238;19.228;2023-02-01T01:26:22;10.60;;;6.40;;
77117;SDS011;66072;50.238;19.228;2023-02-01T01:28:52;9.60;;;5.30;;
77117;SDS011;66072;50.238;19.228;2023-02-01T01:31:22;8.60;;;5.20;;
77117;SDS011;66072;50.238;19.228;2023-02-01T01:33:51;8.70;;;5.00;;
77117;SDS011;66072;50.238;19.228;2023-02-01T01:36:20;6.40;;;4.10;;
77117;SDS011;66072;50.238;19.228;2023-02-01T01:38:48;5.70;;;3.50;;
77117;SDS011;66072;50.238;19.228;2023-02-01T01:41:17;6.70;;;3.30;;
77117;SDS011;66072;50.238;19.228;2023-02-01T01:43:54;4.40;;;2.80;;
77117;SDS011;66072;50.238;19.228;2023-02-01T01:46:46;6.90;;;2.90;;
77117;SDS011;66072;50.238;19.228;2023-02-01T01:49:13;4.20;;;2.50;;
77117;SDS011;66072;50.238;19.228;2023-02-01T01:51:47;5.50;;;2.30;;
77117;SDS011;66072;50.238;19.228;2023-02-01T01:54:21;5.70;;;2.50;;
77117;SDS011;66072;50.238;19.228;2023-02-01T01:56:55;6.30;;;2.40;;
77117;SDS011;66072;50.238;19.228;2023-02-01T01:59:27;3.80;;;1.60;;
77117;SDS011;66072;50.238;19.228;2023-02-01T02:01:59;7.50;;;2.20;;
77117;SDS011;66072;50.238;19.228;2023-02-01T02:04:27;4.40;;;1.70;;
77117;SDS011;66072;50.238;19.228;2023-02-01T02:06:57;6.70;;;2.10;;
77117;SDS011;66072;50.238;19.228;2023-02-01T02:09:30;7.00;;;2.50;;
77117;SDS011;66072;50.238;19.228;2023-02-01T02:11:58;6.50;;;2.20;;
77117;SDS011;66072;50.238;19.228;2023-02-01T02:14:26;6.10;;;2.10;;
77117;SDS011;66072;50.238;19.228;2023-02-01T02:17:07;8.20;;;2.70;;
77117;SDS011;66072;50.238;19.228;2023-02-01T02:23:00;6.10;;;2.10;;
77117;SDS011;66072;50.238;19.228;2023-02-01T02:34:04;13.80;;;2.30;;
77117;SDS011;66072;50.238;19.228;2023-02-01T02:39:21;4.70;;;2.30;;
77117;SDS011;66072;50.238;19.228;2023-02-01T02:44:48;6.50;;;3.20;;
77117;SDS011;66072;50.238;19.228;2023-02-01T02:47:21;4.90;;;2.40;;
77117;SDS011;66072;50.238;19.228;2023-02-01T02:50:01;4.10;;;1.90;;
77117;SDS011;66072;50.238;19.228;2023-02-01T02:52:46;4.20;;;2.40;;
77117;SDS011;66072;50.238;19.228;2023-02-01T02:55:19;3.60;;;1.90;;
77117;SDS011;66072;50.238;19.228;2023-02-01T02:57:48;4.90;;;1.90;;
77117;SDS011;66072;50.238;19.228;2023-02-01T03:00:18;4.90;;;1.70;;
77117;SDS011;66072;50.238;19.228;2023-02-01T03:02:50;3.40;;;1.40;;
77117;SDS011;66072;50.238;19.228;2023-02-01T03:05:19;3.90;;;1.60;;
77117;SDS011;66072;50.238;19.228;2023-02-01T03:13:29;6.30;;;3.40;;
77117;SDS011;66072;50.238;19.228;2023-02-01T03:16:10;9.80;;;3.80;;
77117;SDS011;66072;50.238;19.228;2023-02-01T03:18:48;7.10;;;3.10;;
77117;SDS011;66072;50.238;19.228;2023-02-01T03:21:21;6.50;;;3.10;;
77117;SDS011;66072;50.238;19.228;2023-02-01T03:24:13;6.40;;;3.10;;
77117;SDS011;66072;50.238;19.228;2023-02-01T03:26:55;6.90;;;3.40;;
77117;SDS011;66072;50.238;19.228;2023-02-01T03:29:27;6.80;;;2.90;;
77117;SDS011;66072;50.238;19.228;2023-02-01T03:32:01;5.90;;;3.00;;
77117;SDS011;66072;50.238;19.228;2023-02-01T03:34:28;7.20;;;3.40;;
77117;SDS011;66072;50.238;19.228;2023-02-01T03:36:58;8.00;;;4.10;;
77117;SDS011;66072;50.238;19.228;2023-02-01T03:39:50;6.20;;;2.90;;
77117;SDS011;66072;50.238;19.228;2023-02-01T03:42:27;5.00;;;2.60;;
77117;SDS011;66072;50.238;19.228;2023-02-01T03:45:05;6.10;;;3.00;;
77117;SDS011;66072;50.238;19.228;2023-02-01T03:47:35;6.60;;;3.00;;
77117;SDS011;66072;50.238;19.228;2023-02-01T03:50:08;8.90;;;4.10;;
77117;SDS011;66072;50.238;19.228;2023-02-01T03:52:46;5.30;;;3.20;;
77117;SDS011;66072;50.238;19.228;2023-02-01T03:55:18;6.20;;;2.80;;
77117;SDS011;66072;50.238;19.228;2023-02-01T03:57:57;6.40;;;3.10;;
77117;SDS011;66072;50.238;19.228;2023-02-01T04:00:30;6.00;;;2.50;;
77117;SDS011;66072;50.238;19.228;2023-02-01T04:02:57;8.00;;;3.50;;
77117;SDS011;66072;50.238;19.228;2023-02-01T04:05:25;9.00;;;4.00;;
77117;SDS011;66072;50.238;19.228;2023-02-01T04:07:53;11.00;;;4.40;;
77117;SDS011;66072;50.238;19.228;2023-02-01T04:10:21;8.90;;;4.40;;
77117;SDS011;66072;50.238;19.228;2023-02-01T04:12:49;9.50;;;4.60;;
77117;SDS011;66072;50.238;19.228;2023-02-01T04:15:17;8.60;;;4.30;;
77117;SDS011;66072;50.238;19.228;2023-02-01T04:17:44;7.50;;;3.60;;
77117;SDS011;66072;50.238;19.228;2023-02-01T04:20:12;6.90;;;3.70;;
77117;SDS011;66072;50.238;19.228;2023-02-01T04:22:40;3.50;;;2.20;;
77117;SDS011;66072;50.238;19.228;2023-02-01T04:25:08;6.10;;;3.40;;
77117;SDS011;66072;50.238;19.228;2023-02-01T04:27:36;5.10;;;3.20;;
77117;SDS011;66072;50.238;19.228;2023-02-01T04:30:04;5.10;;;2.80;;
77117;SDS011;66072;50.238;19.228;2023-02-01T04:32:32;8.60;;;3.40;;
77117;SDS011;66072;50.238;19.228;2023-02-01T04:35:00;7.20;;;3.70;;
77117;SDS011;66072;50.238;19.228;2023-02-01T04:37:27;6.10;;;3.20;;
77117;SDS011;66072;50.238;19.228;2023-02-01T04:39:55;6.90;;;3.70;;
77117;SDS011;66072;50.238;19.228;2023-02-01T04:42:23;5.10;;;2.40;;
77117;SDS011;66072;50.238;19.228;2023-02-01T04:44:51;5.10;;;2.90;;
77117;SDS011;66072;50.238;19.228;2023-02-01T04:47:19;5.20;;;2.70;;
77117;SDS011;66072;50.238;19.228;2023-02-01T04:49:46;6.80;;;3.30;;
77117;SDS011;66072;50.238;19.228;2023-02-01T04:52:14;7.10;;;4.10;;
77117;SDS011;66072;50.238;19.228;2023-02-01T04:54:42;7.50;;;4.30;;
77117;SDS011;66072;50.238;19.228;2023-02-01T04:57:10;6.90;;;4.40;;
77117;SDS011;66072;50.238;19.228;2023-02-01T04:59:38;8.70;;;4.70;;
77117;SDS011;66072;50.238;19.228;2023-02-01T05:02:06;5.60;;;3.30;;
77117;SDS011;66072;50.238;19.228;2023-02-01T05:04:33;8.50;;;4.50;;
77117;SDS011;66072;50.238;19.228;2023-02-01T05:07:01;6.90;;;4.10;;
77117;SDS011;66072;50.238;19.228;2023-02-01T05:09:29;7.60;;;3.70;;
77117;SDS011;66072;50.238;19.228;2023-02-01T05:11:56;8.10;;;4.50;;
77117;SDS011;66072;50.238;19.228;2023-02-01T05:14:24;11.10;;;6.30;;
77117;SDS011;66072;50.238;19.228;2023-02-01T05:16:52;9.50;;;5.20;;
77117;SDS011;66072;50.238;19.228;2023-02-01T05:19:20;11.20;;;5.80;;
77117;SDS011;66072;50.238;19.228;2023-02-01T05:21:47;9.00;;;5.60;;
77117;SDS011;66072;50.238;19.228;2023-02-01T05:24:15;12.70;;;7.80;;
77117;SDS011;66072;50.238;19.228;2023-02-01T05:26:43;18.20;;;10.50;;
77117;SDS011;66072;50.238;19.228;2023-02-01T05:29:10;16.90;;;9.30;;
77117;SDS011;66072;50.238;19.228;2023-02-01T05:31:38;18.60;;;9.80;;
77117;SDS011;66072;50.238;19.228;2023-02-01T05:34:07;16.70;;;7.50;;
77117;SDS011;66072;50.238;19.228;2023-02-01T05:36:35;15.10;;;7.80;;
77117;SDS011;66072;50.238;19.228;2023-02-01T05:39:03;17.90;;;9.50;;
77117;SDS011;66072;50.238;19.228;2023-02-01T05:41:30;14.70;;;7.60;;
77117;SDS011;66072;50.238;19.228;2023-02-01T05:43:58;12.10;;;6.90;;
77117;SDS011;66072;50.238;19.228;2023-02-01T05:46:26;7.80;;;4.30;;
77117;SDS011;66072;50.238;19.228;2023-02-01T05:48:53;10.90;;;5.20;;
77117;SDS011;66072;50.238;19.228;2023-02-01T05:51:21;11.40;;;6.00;;
77117;SDS011;66072;50.238;19.228;2023-02-01T05:53:49;9.80;;;5.10;;
77117;SDS011;66072;50.238;19.228;2023-02-01T05:56:17;12.90;;;8.00;;
77117;SDS011;66072;50.238;19.228;2023-02-01T05:58:44;15.00;;;7.30;;
77117;SDS011;66072;50.238;19.228;2023-02-01T06:01:12;18.80;;;8.50;;
77117;SDS011;66072;50.238;19.228;2023-02-01T06:03:40;12.70;;;6.60;;
77117;SDS011;66072;50.238;19.228;2023-02-01T06:06:08;13.50;;;6.50;;
77117;SDS011;66072;50.238;19.228;2023-02-01T06:08:36;9.60;;;5.60;;
77117;SDS011;66072;50.238;19.228;2023-02-01T06:11:04;10.90;;;5.00;;
77117;SDS011;66072;50.238;19.228;2023-02-01T06:13:32;10.90;;;4.70;;
77117;SDS011;66072;50.238;19.228;2023-02-01T06:16:02;14.80;;;6.60;;
77117;SDS011;66072;50.238;19.228;2023-02-01T06:18:30;11.10;;;6.20;;
77117;SDS011;66072;50.238;19.228;2023-02-01T06:20:58;8.10;;;3.70;;
77117;SDS011;66072;50.238;19.228;2023-02-01T06:23:27;14.70;;;8.20;;
77117;SDS011;66072;50.238;19.228;2023-02-01T06:26:00;13.90;;;7.40;;
77117;SDS011;66072;50.238;19.228;2023-02-01T06:28:32;9.10;;;4.80;;
77117;SDS011;66072;50.238;19.228;2023-02-01T06:31:03;13.60;;;8.70;;
77117;SDS011;66072;50.238;19.228;2023-02-01T06:33:33;9.60;;;5.40;;
77117;SDS011;66072;50.238;19.228;2023-02-01T06:36:03;17.00;;;11.00;;
77117;SDS011;66072;50.238;19.228;2023-02-01T06:38:33;29.30;;;15.70;;
77117;SDS011;66072;50.238;19.228;2023-02-01T06:41:02;17.60;;;9.10;;
77117;SDS011;66072;50.238;19.228;2023-02-01T06:43:31;17.20;;;10.30;;
77117;SDS011;66072;50.238;19.228;2023-02-01T06:45:59;13.80;;;7.20;;
77117;SDS011;66072;50.238;19.228;2023-02-01T06:48:28;14.20;;;7.00;;
77117;SDS011;66072;50.238;19.228;2023-02-01T06:50:56;12.00;;;4.30;;
77117;SDS011;66072;50.238;19.228;2023-02-01T06:53:24;9.20;;;5.70;;
77117;SDS011;66072;50.238;19.228;2023-02-01T06:55:54;16.00;;;6.60;;
77117;SDS011;66072;50.238;19.228;2023-02-01T06:58:31;16.40;;;7.80;;
77117;SDS011;66072;50.238;19.228;2023-02-01T07:01:07;65.40;;;33.90;;
77117;SDS011;66072;50.238;19.228;2023-02-01T07:03:36;34.80;;;18.10;;
77117;SDS011;66072;50.238;19.228;2023-02-01T07:06:04;29.10;;;17.10;;
77117;SDS011;66072;50.238;19.228;2023-02-01T07:08:34;14.40;;;7.20;;
77117;SDS011;66072;50.238;19.228;2023-02-01T07:11:07;15.20;;;9.30;;
77117;SDS011;66072;50.238;19.228;2023-02-01T07:13:36;20.80;;;12.30;;
77117;SDS011;66072;50.238;19.228;2023-02-01T07:16:06;12.20;;;8.90;;
77117;SDS011;66072;50.238;19.228;2023-02-01T07:18:37;12.90;;;6.50;;
77117;SDS011;66072;50.238;19.228;2023-02-01T07:21:05;12.60;;;5.90;;
77117;SDS011;66072;50.238;19.228;2023-02-01T07:23:33;16.60;;;7.50;;
77117;SDS011;66072;50.238;19.228;2023-02-01T07:26:03;25.50;;;14.60;;
77117;SDS011;66072;50.238;19.228;2023-02-01T07:28:33;16.80;;;6.90;;
77117;SDS011;66072;50.238;19.228;2023-02-01T07:31:03;12.10;;;6.50;;
77117;SDS011;66072;50.238;19.228;2023-02-01T07:33:31;16.70;;;8.60;;
77117;SDS011;66072;50.238;19.228;2023-02-01T07:36:00;14.90;;;8.40;;
77117;SDS011;66072;50.238;19.228;2023-02-01T07:38:30;14.90;;;6.80;;
77117;SDS011;66072;50.238;19.228;2023-02-01T07:40:59;7.50;;;4.90;;
77117;SDS011;66072;50.238;19.228;2023-02-01T07:43:28;12.00;;;5.40;;
77117;SDS011;66072;50.238;19.228;2023-02-01T07:45:56;17.50;;;8.60;;
77117;SDS011;66072;50.238;19.228;2023-02-01T07:48:25;10.70;;;5.30;;
77117;SDS011;66072;50.238;19.228;2023-02-01T07:51:04;16.10;;;7.40;;
77117;SDS011;66072;50.238;19.228;2023-02-01T07:53:33;9.20;;;5.60;;
77117;SDS011;66072;50.238;19.228;2023-02-01T07:56:01;9.80;;;5.30;;
77117;SDS011;66072;50.238;19.228;2023-02-01T07:58:30;12.50;;;8.30;;
77117;SDS011;66072;50.238;19.228;2023-02-01T08:00:57;11.80;;;5.70;;
77117;SDS011;66072;50.238;19.228;2023-02-01T08:03:25;14.30;;;7.40;;
77117;SDS011;66072;50.238;19.228;2023-02-01T08:05:53;12.20;;;6.20;;
77117;SDS011;66072;50.238;19.228;2023-02-01T08:08:22;9.70;;;5.10;;
77117;SDS011;66072;50.238;19.228;2023-02-01T08:10:50;7.50;;;4.30;;
77117;SDS011;66072;50.238;19.228;2023-02-01T08:13:17;16.20;;;8.40;;
77117;SDS011;66072;50.238;19.228;2023-02-01T08:15:45;17.60;;;9.20;;
77117;SDS011;66072;50.238;19.228;2023-02-01T08:18:13;10.10;;;4.40;;
77117;SDS011;66072;50.238;19.228;2023-02-01T08:20:41;14.90;;;7.00;;
77117;SDS011;66072;50.238;19.228;2023-02-01T08:23:09;13.30;;;7.90;;
77117;SDS011;66072;50.238;19.228;2023-02-01T08:25:37;16.70;;;7.70;;
77117;SDS011;66072;50.238;19.228;2023-02-01T08:28:05;21.90;;;7.80;;
77117;SDS011;66072;50.238;19.228;2023-02-01T08:30:35;12.60;;;6.00;;
77117;SDS011;66072;50.238;19.228;2023-02-01T08:33:05;13.10;;;6.10;;
77117;SDS011;66072;50.238;19.228;2023-02-01T08:35:36;18.40;;;8.70;;
77117;SDS011;66072;50.238;19.228;2023-02-01T08:38:10;14.90;;;7.70;;
77117;SDS011;66072;50.238;19.228;2023-02-01T08:40:38;18.60;;;9.70;;
77117;SDS011;66072;50.238;19.228;2023-02-01T08:43:06;14.70;;;7.80;;
77117;SDS011;66072;50.238;19.228;2023-02-01T08:45:34;17.90;;;8.40;;
77117;SDS011;66072;50.238;19.228;2023-02-01T08:48:01;17.00;;;8.90;;
77117;SDS011;66072;50.238;19.228;2023-02-01T08:50:29;17.20;;;8.40;;
77117;SDS011;66072;50.238;19.228;2023-02-01T08:52:57;18.30;;;9.80;;
77117;SDS011;66072;50.238;19.228;2023-02-01T08:55:25;16.40;;;6.70;;
77117;SDS011;66072;50.238;19.228;2023-02-01T08:57:52;14.50;;;8.50;;
77117;SDS011;66072;50.238;19.228;2023-02-01T09:00:20;15.70;;;9.20;;
77117;SDS011;66072;50.238;19.228;2023-02-01T09:02:48;18.80;;;7.20;;
77117;SDS011;66072;50.238;19.228;2023-02-01T09:05:16;15.00;;;8.30;;
77117;SDS011;66072;50.238;19.228;2023-02-01T09:07:44;14.60;;;7.70;;
77117;SDS011;66072;50.238;19.228;2023-02-01T09:10:11;20.90;;;9.40;;
77117;SDS011;66072;50.238;19.228;2023-02-01T09:12:40;15.80;;;9.10;;
77117;SDS011;66072;50.238;19.228;2023-02-01T09:15:08;12.30;;;6.60;;
77117;SDS011;66072;50.238;19.228;2023-02-01T09:17:36;16.20;;;9.20;;
77117;SDS011;66072;50.238;19.228;2023-02-01T09:20:04;13.20;;;6.90;;
77117;SDS011;66072;50.238;19.228;2023-02-01T09:22:32;13.50;;;6.70;;
77117;SDS011;66072;50.238;19.228;2023-02-01T09:24:59;14.10;;;6.20;;
77117;SDS011;66072;50.238;19.228;2023-02-01T09:27:27;8.80;;;4.60;;
77117;SDS011;66072;50.238;19.228;2023-02-01T09:29:55;12.10;;;5.50;;
77117;SDS011;66072;50.238;19.228;2023-02-01T09:32:23;16.00;;;7.60;;
77117;SDS011;66072;50.238;19.228;2023-02-01T09:34:52;18.40;;;8.70;;
77117;SDS011;66072;50.238;19.228;2023-02-01T09:37:20;14.60;;;6.90;;
77117;SDS011;66072;50.238;19.228;2023-02-01T09:39:47;7.40;;;4.10;;
77117;SDS011;66072;50.238;19.228;2023-02-01T09:47:23;12.30;;;7.10;;
77117;SDS011;66072;50.238;19.228;2023-02-01T09:50:08;11.50;;;5.50;;
77117;SDS011;66072;50.238;19.228;2023-02-01T09:52:44;11.50;;;5.30;;
77117;SDS011;66072;50.238;19.228;2023-02-01T09:55:19;10.30;;;5.20;;
77117;SDS011;66072;50.238;19.228;2023-02-01T09:57:53;9.80;;;5.30;;
77117;SDS011;66072;50.238;19.228;2023-02-01T10:00:27;12.80;;;6.60;;
77117;SDS011;66072;50.238;19.228;2023-02-01T10:02:57;16.20;;;5.80;;
77117;SDS011;66072;50.238;19.228;2023-02-01T10:05:38;11.80;;;4.60;;
77117;SDS011;66072;50.238;19.228;2023-02-01T10:10:52;8.20;;;4.30;;
77117;SDS011;66072;50.238;19.228;2023-02-01T10:27:48;9.40;;;5.70;;
77117;SDS011;66072;50.238;19.228;2023-02-01T10:30:20;10.30;;;4.80;;
77117;SDS011;66072;50.238;19.228;2023-02-01T10:32:59;10.00;;;4.70;;
77117;SDS011;66072;50.238;19.228;2023-02-01T10:35:41;6.30;;;3.50;;
77117;SDS011;66072;50.238;19.228;2023-02-01T10:38:16;9.70;;;5.30;;
77117;SDS011;66072;50.238;19.228;2023-02-01T10:40:55;10.30;;;5.00;;
77117;SDS011;66072;50.238;19.228;2023-02-01T10:43:29;7.30;;;4.60;;
77117;SDS011;66072;50.238;19.228;2023-02-01T10:45:58;9.30;;;4.40;;
77117;SDS011;66072;50.238;19.228;2023-02-01T10:48:26;11.20;;;3.80;;
77117;SDS011;66072;50.238;19.228;2023-02-01T10:53:43;8.70;;;4.50;;
77117;SDS011;66072;50.238;19.228;2023-02-01T10:56:24;13.80;;;5.30;;
77117;SDS011;66072;50.238;19.228;2023-02-01T10:59:03;8.70;;;5.20;;
77117;SDS011;66072;50.238;19.228;2023-02-01T11:01:40;10.10;;;5.40;;
77117;SDS011;66072;50.238;19.228;2023-02-01T11:04:18;14.20;;;6.80;;
77117;SDS011;66072;50.238;19.228;2023-02-01T11:06:48;7.30;;;4.80;;
77117;SDS011;66072;50.238;19.228;2023-02-01T11:09:22;12.00;;;4.40;;
77117;SDS011;66072;50.238;19.228;2023-02-01T11:11:54;8.50;;;3.80;;
77117;SDS011;66072;50.238;19.228;2023-02-01T11:16:58;9.90;;;4.40;;
77117;SDS011;66072;50.238;19.228;2023-02-01T11:19:28;8.10;;;4.60;;
77117;SDS011;66072;50.238;19.228;2023-02-01T11:21:57;6.80;;;3.90;;
77117;SDS011;66072;50.238;19.228;2023-02-01T11:24:33;8.90;;;5.80;;
77117;SDS011;66072;50.238;19.228;2023-02-01T11:27:03;14.30;;;6.70;;
77117;SDS011;66072;50.238;19.228;2023-02-01T11:32:06;9.40;;;5.60;;
77117;SDS011;66072;50.238;19.228;2023-02-01T11:37:05;16.10;;;6.90;;
77117;SDS011;66072;50.238;19.228;2023-02-01T11:39:44;15.20;;;6.90;;
77117;SDS011;66072;50.238;19.228;2023-02-01T11:42:53;14.40;;;8.20;;
77117;SDS011;66072;50.238;19.228;2023-02-01T11:45:30;14.50;;;8.20;;
77117;SDS011;66072;50.238;19.228;2023-02-01T11:48:00;14.30;;;7.90;;
77117;SDS011;66072;50.238;19.228;2023-02-01T12:09:59;10.40;;;5.70;;
77117;SDS011;66072;50.238;19.228;2023-02-01T12:12:40;14.90;;;8.20;;
77117;SDS011;66072;50.238;19.228;2023-02-01T12:15:33;13.80;;;8.30;;
77117;SDS011;66072;50.238;19.228;2023-02-01T12:18:23;13.60;;;8.20;;
77117;SDS011;66072;50.238;19.228;2023-02-01T12:32:02;10.10;;;5.60;;
77117;SDS011;66072;50.238;19.228;2023-02-01T12:34:53;8.80;;;5.20;;
77117;SDS011;66072;50.238;19.228;2023-02-01T12:43:02;29.00;;;11.80;;
77117;SDS011;66072;50.238;19.228;2023-02-01T12:45:46;21.80;;;10.50;;
77117;SDS011;66072;50.238;19.228;2023-02-01T12:50:57;36.70;;;19.00;;
77117;SDS011;66072;50.238;19.228;2023-02-01T12:53:42;14.70;;;9.60;;
77117;SDS011;66072;50.238;19.228;2023-02-01T12:56:16;15.30;;;9.70;;
77117;SDS011;66072;50.238;19.228;2023-02-01T12:58:50;10.90;;;6.60;;
77117;SDS011;66072;50.238;19.228;2023-02-01T13:01:40;11.90;;;8.00;;
77117;SDS011;66072;50.238;19.228;2023-02-01T13:04:25;15.50;;;8.40;;
77117;SDS011;66072;50.238;19.228;2023-02-01T13:15:33;12.80;;;8.00;;
77117;SDS011;66072;50.238;19.228;2023-02-01T13:18:06;14.80;;;8.90;;
77117;SDS011;66072;50.238;19.228;2023-02-01T13:21:17;15.50;;;7.90;;
77117;SDS011;66072;50.238;19.228;2023-02-01T13:23:38;12.70;;;8.00;;
77117;SDS011;66072;50.238;19.228;2023-02-01T13:26:08;15.10;;;9.20;;
77117;SDS011;66072;50.238;19.228;2023-02-01T13:43:00;16.80;;;11.30;;
77117;SDS011;66072;50.238;19.228;2023-02-01T13:45:34;15.10;;;9.20;;
77117;SDS011;66072;50.238;19.228;2023-02-01T13:48:14;19.80;;;10.70;;
77117;SDS011;66072;50.238;19.228;2023-02-01T13:50:55;21.30;;;10.50;;
77117;SDS011;66072;50.238;19.228;2023-02-01T13:53:29;12.40;;;7.10;;
77117;SDS011;66072;50.238;19.228;2023-02-01T13:56:00;16.10;;;9.60;;
77117;SDS011;66072;50.238;19.228;2023-02-01T14:03:59;15.40;;;7.70;;
77117;SDS011;66072;50.238;19.228;2023-02-01T14:11:40;19.40;;;11.80;;
77117;SDS011;66072;50.238;19.228;2023-02-01T14:16:42;11.50;;;6.80;;
77117;SDS011;66072;50.238;19.228;2023-02-01T14:19:27;16.30;;;7.10;;
77117;SDS011;66072;50.238;19.228;2023-02-01T14:22:00;12.90;;;6.30;;
77117;SDS011;66072;50.238;19.228;2023-02-01T14:24:51;10.20;;;6.40;;
77117;SDS011;66072;50.238;19.228;2023-02-01T14:29:56;9.70;;;5.20;;
77117;SDS011;66072;50.238;19.228;2023-02-01T14:35:28;10.90;;;6.50;;
77117;SDS011;66072;50.238;19.228;2023-02-01T14:37:59;15.00;;;8.80;;
77117;SDS011;66072;50.238;19.228;2023-02-01T14:40:28;14.30;;;9.10;;
77117;SDS011;66072;50.238;19.228;2023-02-01T14:42:56;14.10;;;8.70;;
77117;SDS011;66072;50.238;19.228;2023-02-01T14:50:34;14.00;;;8.70;;
77117;SDS011;66072;50.238;19.228;2023-02-01T14:55:56;10.90;;;5.90;;
77117;SDS011;66072;50.238;19.228;2023-02-01T15:01:04;14.70;;;7.10;;
77117;SDS011;66072;50.238;19.228;2023-02-01T15:03:38;14.10;;;8.00;;
77117;SDS011;66072;50.238;19.228;2023-02-01T15:06:21;18.10;;;10.00;;
77117;SDS011;66072;50.238;19.228;2023-02-01T15:08:54;17.80;;;10.50;;
77117;SDS011;66072;50.238;19.228;2023-02-01T15:11:32;13.40;;;8.30;;
77117;SDS011;66072;50.238;19.228;2023-02-01T15:13:59;12.30;;;7.10;;
77117;SDS011;66072;50.238;19.228;2023-02-01T15:16:27;18.40;;;10.10;;
77117;SDS011;66072;50.238;19.228;2023-02-01T15:19:08;17.70;;;10.10;;
77117;SDS011;66072;50.238;19.228;2023-02-01T15:21:47;17.00;;;10.20;;
77117;SDS011;66072;50.238;19.228;2023-02-01T15:24:27;15.00;;;9.70;;
77117;SDS011;66072;50.238;19.228;2023-02-01T15:27:02;11.80;;;7.80;;
77117;SDS011;66072;50.238;19.228;2023-02-01T15:29:32;14.30;;;8.10;;
77117;SDS011;66072;50.238;19.228;2023-02-01T15:31:59;12.90;;;7.30;;
77117;SDS011;66072;50.238;19.228;2023-02-01T15:34:44;12.90;;;7.80;;
77117;SDS011;66072;50.238;19.228;2023-02-01T15:37:16;15.80;;;8.90;;
77117;SDS011;66072;50.238;19.228;2023-02-01T15:42:31;10.80;;;5.60;;
77117;SDS011;66072;50.238;19.228;2023-02-01T15:44:58;13.80;;;7.40;;
77117;SDS011;66072;50.238;19.228;2023-02-01T15:47:27;12.70;;;7.70;;
77117;SDS011;66072;50.238;19.228;2023-02-01T15:49:58;9.00;;;5.10;;
77117;SDS011;66072;50.238;19.228;2023-02-01T15:52:35;10.30;;;6.00;;
77117;SDS011;66072;50.238;19.228;2023-02-01T15:57:53;11.40;;;6.00;;
77117;SDS011;66072;50.238;19.228;2023-02-01T16:00:25;15.20;;;7.00;;
77117;SDS011;66072;50.238;19.228;2023-02-01T16:03:00;15.50;;;6.80;;
77117;SDS011;66072;50.238;19.228;2023-02-01T16:05:34;12.30;;;7.20;;
77117;SDS011;66072;50.238;19.228;2023-02-01T16:10:45;13.40;;;7.70;;
77117;SDS011;66072;50.238;19.228;2023-02-01T16:13:15;12.80;;;6.90;;
77117;SDS011;66072;50.238;19.228;2023-02-01T16:15:44;12.90;;;8.30;;
77117;SDS011;66072;50.238;19.228;2023-02-01T16:18:12;10.00;;;5.10;;
77117;SDS011;66072;50.238;19.228;2023-02-01T16:20:47;8.60;;;4.70;;
77117;SDS011;66072;50.238;19.228;2023-02-01T16:23:15;11.90;;;6.80;;
77117;SDS011;66072;50.238;19.228;2023-02-01T16:25:42;10.40;;;5.20;;
77117;SDS011;66072;50.238;19.228;2023-02-01T16:28:10;12.10;;;6.40;;
77117;SDS011;66072;50.238;19.228;2023-02-01T16:30:38;10.60;;;6.90;;
77117;SDS011;66072;50.238;19.228;2023-02-01T16:33:06;18.00;;;10.30;;
77117;SDS011;66072;50.238;19.228;2023-02-01T16:35:42;18.90;;;12.50;;
77117;SDS011;66072;50.238;19.228;2023-02-01T16:38:14;14.00;;;8.80;;
77117;SDS011;66072;50.238;19.228;2023-02-01T16:40:44;15.60;;;8.40;;
77117;SDS011;66072;50.238;19.228;2023-02-01T16:43:16;13.60;;;8.70;;
77117;SDS011;66072;50.238;19.228;2023-02-01T16:45:48;16.10;;;10.00;;
77117;SDS011;66072;50.238;19.228;2023-02-01T16:48:27;14.70;;;8.70;;
77117;SDS011;66072;50.238;19.228;2023-02-01T16:50:58;13.40;;;7.20;;
77117;SDS011;66072;50.238;19.228;2023-02-01T16:53:29;14.20;;;8.20;;
77117;SDS011;66072;50.238;19.228;2023-02-01T16:56:15;15.30;;;8.00;;
77117;SDS011;66072;50.238;19.228;2023-02-01T16:58:46;16.60;;;9.20;;
77117;SDS011;66072;50.238;19.228;2023-02-01T17:01:15;13.60;;;7.70;;
77117;SDS011;66072;50.238;19.228;2023-02-01T17:03:44;11.20;;;6.30;;
77117;SDS011;66072;50.238;19.228;2023-02-01T17:06:19;10.60;;;7.20;;
77117;SDS011;66072;50.238;19.228;2023-02-01T17:08:51;13.60;;;8.70;;
77117;SDS011;66072;50.238;19.228;2023-02-01T17:11:23;13.70;;;6.30;;
77117;SDS011;66072;50.238;19.228;2023-02-01T17:13:52;11.60;;;5.70;;
77117;SDS011;66072;50.238;19.228;2023-02-01T17:16:21;12.10;;;6.50;;
77117;SDS011;66072;50.238;19.228;2023-02-01T17:18:58;12.80;;;6.60;;
77117;SDS011;66072;50.238;19.228;2023-02-01T17:21:30;14.60;;;7.20;;
77117;SDS011;66072;50.238;19.228;2023-02-01T17:24:06;10.90;;;6.30;;
77117;SDS011;66072;50.238;19.228;2023-02-01T17:26:33;11.60;;;6.90;;